createdAt,value
2023-03-01T00:00:54.663Z,85.02
2023-03-01T00:03:25.958Z,84.86
2023-03-01T00:05:57.286Z,85.04
2023-03-01T00:08:28.972Z,84.78
2023-03-01T00:11:15.037Z,85.16
2023-03-01T00:13:48.449Z,84.90
2023-03-01T00:16:23.907Z,84.86
2023-03-01T00:18:56.405Z,85.12
2023-03-01T00:21:28.823Z,85.09
2023-03-01T00:24:00.097Z,85.42
2023-03-01T00:26:31.773Z,85.33
2023-03-01T00:29:03.951Z,85.80
2023-03-01T00:31:35.430Z,85.39
2023-03-01T00:34:06.960Z,85.57
2023-03-01T00:36:38.659Z,85.09
2023-03-01T00:39:15.295Z,84.81
2023-03-01T00:41:46.566Z,85.46
2023-03-01T00:44:18.257Z,85.30
2023-03-01T00:46:49.504Z,85.89
2023-03-01T00:49:20.849Z,85.64
2023-03-01T00:51:52.221Z,85.59
2023-03-01T00:54:23.603Z,85.49
2023-03-01T00:56:54.859Z,85.54
2023-03-01T00:59:26.188Z,85.62
2023-03-01T01:01:57.518Z,85.47
2023-03-01T01:04:28.823Z,85.46
2023-03-01T01:07:00.129Z,85.56
2023-03-01T01:09:31.451Z,85.69
2023-03-01T01:12:03.085Z,85.74
2023-03-01T01:14:34.887Z,85.53
2023-03-01T01:17:06.206Z,85.84
2023-03-01T01:19:37.480Z,85.78
2023-03-01T01:22:08.748Z,85.94
2023-03-01T01:24:40.040Z,85.66
2023-03-01T01:27:11.286Z,85.83
2023-03-01T01:29:42.997Z,85.71
2023-03-01T01:32:14.318Z,85.85
2023-03-01T01:34:45.681Z,85.64
2023-03-01T01:37:16.969Z,85.71
2023-03-01T01:39:48.386Z,85.66
2023-03-01T01:42:19.701Z,86.03
2023-03-01T01:45:29.621Z,85.84
2023-03-01T01:48:41.153Z,86.04
2023-03-01T01:51:18.628Z,85.98
2023-03-01T01:53:54.253Z,86.08
2023-03-01T01:56:29.938Z,86.22
2023-03-01T01:59:02.431Z,86.13
2023-03-01T02:01:34.710Z,85.67
2023-03-01T02:04:07.432Z,86.34
2023-03-01T02:06:42.720Z,85.83
2023-03-01T02:09:19.363Z,85.96
2023-03-01T02:11:52.845Z,86.04
2023-03-01T02:14:24.124Z,85.99
2023-03-01T02:16:55.639Z,86.51
2023-03-01T02:20:07.752Z,86.68
2023-03-01T02:22:39.905Z,86.73
2023-03-01T02:25:19.103Z,86.24
2023-03-01T02:27:59.603Z,86.31
2023-03-01T02:30:33.244Z,86.89
2023-03-01T02:33:05.443Z,86.51
2023-03-01T02:35:39.774Z,86.26
2023-03-01T02:38:11.181Z,86.60
2023-03-01T02:40:43.469Z,86.36
2023-03-01T02:43:15.481Z,86.42
2023-03-01T02:45:54.243Z,86.19
2023-03-01T02:48:25.768Z,86.60
2023-03-01T02:51:16.714Z,86.38
2023-03-01T02:54:08.502Z,86.84
2023-03-01T02:56:49.890Z,86.86
2023-03-01T02:59:25.729Z,86.76
2023-03-01T03:01:56.997Z,86.88
2023-03-01T03:04:28.290Z,87.44
2023-03-01T03:06:59.686Z,86.70
2023-03-01T03:09:31.001Z,86.64
2023-03-01T03:12:02.258Z,86.73
2023-03-01T03:14:35.797Z,86.76
2023-03-01T03:17:07.575Z,86.48
2023-03-01T03:19:38.911Z,86.35
2023-03-01T03:22:10.186Z,86.49
2023-03-01T03:24:41.521Z,86.50
2023-03-01T03:27:12.823Z,86.73
2023-03-01T03:29:44.100Z,86.81
2023-03-01T03:32:15.476Z,86.90
2023-03-01T03:34:46.779Z,86.59
2023-03-01T03:37:41.392Z,86.70
2023-03-01T03:40:16.298Z,86.45
2023-03-01T03:42:47.694Z,86.54
2023-03-01T03:45:19.646Z,86.73
2023-03-01T03:47:51.028Z,86.60
2023-03-01T03:50:22.304Z,86.79
2023-03-01T03:52:53.787Z,86.49
2023-03-01T03:55:28.935Z,86.71
2023-03-01T03:58:07.452Z,86.75
2023-03-01T04:00:45.168Z,86.85
2023-03-01T04:03:19.649Z,86.65
2023-03-01T04:05:51.807Z,86.71
2023-03-01T04:08:24.545Z,86.85
2023-03-01T04:11:21.749Z,86.57
2023-03-01T04:13:54.883Z,86.86
2023-03-01T04:16:26.539Z,86.53
2023-03-01T04:19:00.526Z,86.84
2023-03-01T04:21:31.846Z,86.76
2023-03-01T04:24:04.568Z,87.19
2023-03-01T04:26:35.850Z,86.81
2023-03-01T04:29:07.561Z,87.19
2023-03-01T04:31:38.890Z,86.93
2023-03-01T04:34:10.186Z,87.05
2023-03-01T04:36:41.608Z,87.09
2023-03-01T04:39:15.565Z,86.99
2023-03-01T04:41:46.939Z,87.02
2023-03-01T04:44:18.272Z,87.10
2023-03-01T04:46:50.951Z,87.59
2023-03-01T04:49:22.297Z,86.75
2023-03-01T04:51:53.672Z,86.92
2023-03-01T04:54:24.996Z,87.11
2023-03-01T04:56:56.558Z,86.94
2023-03-01T04:59:28.247Z,86.60
2023-03-01T05:02:01.287Z,86.76
2023-03-01T05:04:32.711Z,87.17
2023-03-01T05:07:04.190Z,86.63
2023-03-01T05:09:35.665Z,86.67
2023-03-01T05:12:07.101Z,86.88
2023-03-01T05:14:39.440Z,86.59
2023-03-01T05:17:10.760Z,86.39
2023-03-01T05:19:43.631Z,86.88
2023-03-01T05:22:15.019Z,85.95
2023-03-01T05:24:47.721Z,86.06
2023-03-01T05:27:19.031Z,86.81
2023-03-01T05:29:50.340Z,86.93
2023-03-01T05:32:21.737Z,86.08
2023-03-01T05:34:53.091Z,86.56
2023-03-01T05:37:24.380Z,86.80
2023-03-01T05:39:55.656Z,86.58
2023-03-01T05:42:26.933Z,86.06
2023-03-01T05:44:58.240Z,86.83
2023-03-01T05:47:29.655Z,87.01
2023-03-01T05:50:01.173Z,86.67
2023-03-01T05:52:32.444Z,86.57
2023-03-01T05:55:04.011Z,86.98
2023-03-01T05:57:35.348Z,85.89
2023-03-01T06:00:07.528Z,86.73
2023-03-01T06:02:39.027Z,86.03
2023-03-01T06:05:12.003Z,86.39
2023-03-01T06:07:43.466Z,86.97
2023-03-01T06:10:16.148Z,86.94
2023-03-01T06:12:48.197Z,86.96
2023-03-01T06:15:19.795Z,86.20
2023-03-01T06:17:51.860Z,86.32
2023-03-01T06:20:24.982Z,86.33
2023-03-01T06:22:56.822Z,86.54
2023-03-01T06:25:28.442Z,86.99
2023-03-01T06:27:59.766Z,86.23
2023-03-01T06:30:31.040Z,86.93
2023-03-01T06:33:04.057Z,87.00
2023-03-01T06:35:36.033Z,86.99
2023-03-01T06:38:08.424Z,87.42
2023-03-01T06:40:39.702Z,86.57
2023-03-01T06:43:11.088Z,86.44
2023-03-01T06:45:43.900Z,86.54
2023-03-01T06:48:15.268Z,86.38
2023-03-01T06:50:46.584Z,85.89
2023-03-01T06:53:17.884Z,86.53
2023-03-01T06:55:55.176Z,87.30
2023-03-01T06:58:26.903Z,86.48
2023-03-01T07:00:58.241Z,86.58
2023-03-01T07:03:29.551Z,86.90
2023-03-01T07:06:00.915Z,86.55
2023-03-01T07:08:32.186Z,86.22
2023-03-01T07:11:04.448Z,86.59
2023-03-01T07:13:35.820Z,86.79
2023-03-01T07:16:07.639Z,86.35
2023-03-01T07:18:39.477Z,86.77
2023-03-01T07:21:13.712Z,86.07
2023-03-01T07:23:47.848Z,86.39
2023-03-01T07:26:19.163Z,86.82
2023-03-01T07:28:50.461Z,86.32
2023-03-01T07:31:21.722Z,85.90
2023-03-01T07:33:52.995Z,86.70
2023-03-01T07:36:24.666Z,86.13
2023-03-01T07:38:56.704Z,86.56
2023-03-01T07:41:27.987Z,86.07
2023-03-01T07:43:59.304Z,86.37
2023-03-01T07:46:31.000Z,86.82
2023-03-01T07:49:02.482Z,86.42
2023-03-01T07:51:33.792Z,86.24
2023-03-01T07:54:05.230Z,86.11
2023-03-01T07:56:36.614Z,86.24
2023-03-01T07:59:07.948Z,86.17
2023-03-01T08:01:39.296Z,86.08
2023-03-01T08:04:11.383Z,86.15
2023-03-01T08:06:42.656Z,86.31
2023-03-01T08:09:14.042Z,85.61
2023-03-01T08:11:45.343Z,86.01
2023-03-01T08:14:16.688Z,85.79
2023-03-01T08:16:50.312Z,85.89
2023-03-01T08:19:21.665Z,85.99
2023-03-01T08:21:52.997Z,86.06
2023-03-01T08:24:24.973Z,85.59
2023-03-01T08:26:56.239Z,85.02
2023-03-01T08:29:27.605Z,85.11
2023-03-01T08:31:59.018Z,85.43
2023-03-01T08:34:32.114Z,84.99
2023-03-01T08:37:03.518Z,85.35
2023-03-01T08:39:34.862Z,84.15
2023-03-01T08:42:06.295Z,85.42
2023-03-01T08:44:37.563Z,84.01
2023-03-01T08:47:08.948Z,84.21
2023-03-01T08:49:40.235Z,84.39
2023-03-01T08:52:11.514Z,83.46
2023-03-01T08:54:42.836Z,83.37
2023-03-01T08:57:14.122Z,83.04
2023-03-01T08:59:45.554Z,83.37
2023-03-01T09:02:18.763Z,82.36
2023-03-01T09:04:50.177Z,82.70
2023-03-01T09:07:21.475Z,82.56
2023-03-01T09:09:54.290Z,83.07
2023-03-01T09:12:26.275Z,82.17
2023-03-01T09:14:57.595Z,82.91
2023-03-01T09:17:28.863Z,81.91
2023-03-01T09:20:00.614Z,81.48
2023-03-01T09:22:33.804Z,81.47
2023-03-01T09:25:05.538Z,81.15
2023-03-01T09:27:36.803Z,81.13
2023-03-01T09:30:09.068Z,80.38
2023-03-01T09:32:43.503Z,80.36
2023-03-01T09:35:15.047Z,80.19
2023-03-01T09:37:46.756Z,80.13
2023-03-01T09:40:25.346Z,79.94
2023-03-01T09:43:09.579Z,80.09
2023-03-01T09:45:45.435Z,80.19
2023-03-01T09:48:25.787Z,80.05
2023-03-01T09:50:57.646Z,79.65
2023-03-01T09:53:36.007Z,79.51
2023-03-01T09:56:36.718Z,78.91
2023-03-01T09:59:31.108Z,79.19
2023-03-01T10:02:38.322Z,78.87
2023-03-01T10:05:18.660Z,79.89
2023-03-01T10:08:01.790Z,79.01
2023-03-01T10:10:34.794Z,79.26
2023-03-01T10:13:49.892Z,78.86
2023-03-01T10:16:48.894Z,78.89
2023-03-01T10:19:35.616Z,79.08
2023-03-01T10:22:17.366Z,79.46
2023-03-01T10:24:49.770Z,79.31
2023-03-01T10:27:47.463Z,79.14
2023-03-01T10:30:23.605Z,79.44
2023-03-01T10:32:55.156Z,79.25
2023-03-01T10:35:29.823Z,78.87
2023-03-01T10:38:08.709Z,78.80
2023-03-01T10:40:55.302Z,78.52
2023-03-01T10:43:44.711Z,78.87
2023-03-01T10:46:25.376Z,78.56
2023-03-01T10:49:17.092Z,78.26
2023-03-01T10:51:50.943Z,78.89
2023-03-01T10:54:31.444Z,78.35
2023-03-01T10:57:06.344Z,77.99
2023-03-01T10:59:39.590Z,77.57
2023-03-01T11:02:29.122Z,77.34
2023-03-01T11:05:20.446Z,77.39
2023-03-01T11:07:59.809Z,76.62
2023-03-01T11:10:34.376Z,77.02
2023-03-01T11:13:20.080Z,76.56
2023-03-01T11:16:08.630Z,76.17
2023-03-01T11:18:47.597Z,76.83
2023-03-01T11:21:19.581Z,77.18
2023-03-01T11:23:51.172Z,76.84
2023-03-01T11:26:22.979Z,76.64
2023-03-01T11:28:58.934Z,76.29
2023-03-01T11:31:31.889Z,76.22
2023-03-01T11:34:13.529Z,75.74
2023-03-01T11:36:54.860Z,75.95
2023-03-01T11:39:31.814Z,76.34
2023-03-01T11:42:19.169Z,75.88
2023-03-01T11:44:55.936Z,76.85
2023-03-01T11:47:43.252Z,76.94
2023-03-01T11:50:27.054Z,75.80
2023-03-01T11:53:40.515Z,76.70
2023-03-01T11:56:25.898Z,76.71
2023-03-01T11:59:18.171Z,76.34
2023-03-01T12:02:15.245Z,76.63
2023-03-01T12:04:46.484Z,76.29
2023-03-01T12:07:42.031Z,76.35
2023-03-01T12:10:19.065Z,77.19
2023-03-01T12:13:20.552Z,76.83
2023-03-01T12:16:08.801Z,76.29
2023-03-01T12:18:46.327Z,76.64
2023-03-01T12:21:41.751Z,75.94
2023-03-01T12:24:46.663Z,76.70
2023-03-01T12:27:37.908Z,76.87
2023-03-01T12:30:41.770Z,76.18
2023-03-01T12:33:19.695Z,76.57
2023-03-01T12:36:28.317Z,75.81
2023-03-01T12:39:24.980Z,76.56
2023-03-01T12:42:13.196Z,76.34
2023-03-01T12:45:02.703Z,76.17
2023-03-01T12:48:13.755Z,75.92
2023-03-01T12:50:49.902Z,76.46
2023-03-01T12:53:41.268Z,75.59
2023-03-01T12:56:17.646Z,76.12
2023-03-01T12:58:58.807Z,75.90
2023-03-01T13:01:56.540Z,75.11
2023-03-01T13:04:56.158Z,75.41
2023-03-01T13:07:40.283Z,75.41
2023-03-01T13:10:17.940Z,75.96
2023-03-01T13:12:53.929Z,75.97
2023-03-01T13:15:25.227Z,75.59
2023-03-01T13:18:04.173Z,74.50
2023-03-01T13:20:44.851Z,74.88
2023-03-01T13:23:25.875Z,74.54
2023-03-01T13:25:59.907Z,74.71
2023-03-01T13:28:42.752Z,75.09
2023-03-01T13:31:16.740Z,75.05
2023-03-01T13:33:52.794Z,74.93
2023-03-01T13:36:30.790Z,74.83
2023-03-01T13:39:05.691Z,75.35
2023-03-01T13:41:39.820Z,75.17
2023-03-01T13:44:23.721Z,75.01
2023-03-01T13:47:00.059Z,74.70
2023-03-01T13:49:52.528Z,73.64
2023-03-01T13:52:55.813Z,74.08
2023-03-01T13:55:42.002Z,74.58
2023-03-01T13:58:27.205Z,74.68
2023-03-01T14:01:05.757Z,74.47
2023-03-01T14:03:43.206Z,74.82
2023-03-01T14:06:21.129Z,74.64
2023-03-01T14:09:10.902Z,74.54
2023-03-01T14:12:15.374Z,73.43
2023-03-01T14:15:07.427Z,73.47
2023-03-01T14:17:48.025Z,74.61
2023-03-01T14:20:27.718Z,74.32
2023-03-01T14:23:02.433Z,75.00
2023-03-01T14:25:36.640Z,74.85
2023-03-01T14:28:17.132Z,75.05
2023-03-01T14:30:50.906Z,75.08
2023-03-01T14:33:30.681Z,74.98
2023-03-01T14:36:10.728Z,75.35
2023-03-01T14:38:46.818Z,75.45
2023-03-01T14:41:21.504Z,75.52
2023-03-01T14:44:01.905Z,74.90
2023-03-01T14:46:39.122Z,74.86
2023-03-01T14:49:25.365Z,75.73
2023-03-01T14:52:01.709Z,75.18
2023-03-01T14:54:43.833Z,75.67
2023-03-01T14:57:26.918Z,75.75
2023-03-01T15:00:01.756Z,75.70
2023-03-01T15:02:34.016Z,75.85
2023-03-01T15:05:09.022Z,76.34
2023-03-01T15:07:42.656Z,76.15
2023-03-01T15:10:22.731Z,76.47
2023-03-01T15:12:54.409Z,76.72
2023-03-01T15:15:25.956Z,76.75
2023-03-01T15:18:00.794Z,76.80
2023-03-01T15:20:36.304Z,76.65
2023-03-01T15:23:20.365Z,77.03
2023-03-01T15:25:57.495Z,77.52
2023-03-01T15:28:32.478Z,77.63
2023-03-01T15:31:13.466Z,77.44
2023-03-01T15:33:48.284Z,77.91
2023-03-01T15:36:34.115Z,77.81
2023-03-01T15:39:31.276Z,77.89
2023-03-01T15:42:02.706Z,78.85
2023-03-01T15:44:43.288Z,78.55
2023-03-01T15:47:30.487Z,78.41
2023-03-01T15:50:02.607Z,79.04
2023-03-01T15:52:43.491Z,79.12
2023-03-01T15:55:30.624Z,79.53
2023-03-01T15:58:13.033Z,79.38
2023-03-01T16:01:00.367Z,79.44
2023-03-01T16:03:32.633Z,79.78
2023-03-01T16:06:04.328Z,79.94
2023-03-01T16:08:35.686Z,80.44
2023-03-01T16:11:17.332Z,80.36
2023-03-01T16:13:49.265Z,80.88
2023-03-01T16:16:20.838Z,80.93
2023-03-01T16:18:55.395Z,80.84
2023-03-01T16:21:26.989Z,81.06
2023-03-01T16:23:58.393Z,81.14
2023-03-01T16:26:30.048Z,81.13
2023-03-01T16:29:01.631Z,81.02
2023-03-01T16:31:33.504Z,81.65
2023-03-01T16:34:05.430Z,81.91
2023-03-01T16:36:37.549Z,81.81
2023-03-01T16:39:10.346Z,81.93
2023-03-01T16:41:41.619Z,82.71
2023-03-01T16:44:12.930Z,82.50
2023-03-01T16:46:44.442Z,82.94
2023-03-01T16:49:15.773Z,83.26
2023-03-01T16:51:47.038Z,82.94
2023-03-01T16:54:18.556Z,83.86
2023-03-01T16:56:52.365Z,83.05
2023-03-01T16:59:23.930Z,83.30
2023-03-01T17:01:55.273Z,83.27
2023-03-01T17:04:26.613Z,84.44
2023-03-01T17:06:58.034Z,83.86
2023-03-01T17:09:31.486Z,84.71
2023-03-01T17:12:03.351Z,84.77
2023-03-01T17:14:35.550Z,84.61
2023-03-01T17:17:06.835Z,84.38
2023-03-01T17:19:44.228Z,84.54
2023-03-01T17:22:16.108Z,85.42
2023-03-01T17:24:47.379Z,85.62
2023-03-01T17:27:19.291Z,85.70
2023-03-01T17:29:50.633Z,85.63
2023-03-01T17:32:22.116Z,86.60
2023-03-01T17:34:53.453Z,86.28
2023-03-01T17:37:24.861Z,86.18
2023-03-01T17:39:56.210Z,86.34
2023-03-01T17:42:27.539Z,86.50
2023-03-01T17:44:59.185Z,86.58
2023-03-01T17:47:30.491Z,87.04
2023-03-01T17:50:02.200Z,86.77
2023-03-01T17:52:33.583Z,86.31
2023-03-01T17:55:05.438Z,87.12
2023-03-01T17:57:40.721Z,87.86
2023-03-01T18:00:15.530Z,87.53
2023-03-01T18:02:46.887Z,87.14
2023-03-01T18:05:18.519Z,87.59
2023-03-01T18:07:51.383Z,87.05
2023-03-01T18:10:22.678Z,88.42
2023-03-01T18:12:53.957Z,87.60
2023-03-01T18:15:29.880Z,87.75
2023-03-01T18:18:01.196Z,87.80
2023-03-01T18:20:34.672Z,88.92
2023-03-01T18:23:06.617Z,88.58
2023-03-01T18:25:39.662Z,88.59
2023-03-01T18:28:10.928Z,88.27
2023-03-01T18:30:42.267Z,88.60
2023-03-01T18:33:13.577Z,88.78
2023-03-01T18:35:44.926Z,88.42
2023-03-01T18:38:17.006Z,89.17
2023-03-01T18:40:48.350Z,88.76
2023-03-01T18:43:19.702Z,88.78
2023-03-01T18:45:57.815Z,88.58
2023-03-01T18:48:29.970Z,89.57
2023-03-01T18:51:28.693Z,89.19
2023-03-01T18:54:00.217Z,89.67
2023-03-01T18:56:33.928Z,89.36
2023-03-01T18:59:05.872Z,89.65
2023-03-01T19:01:38.219Z,89.53
2023-03-01T19:04:10.884Z,89.31
2023-03-01T19:06:42.576Z,89.80
2023-03-01T19:09:14.922Z,89.89
2023-03-01T19:11:46.191Z,89.75
2023-03-01T19:14:17.621Z,89.71
2023-03-01T19:16:49.012Z,89.80
2023-03-01T19:19:20.344Z,90.42
2023-03-01T19:22:04.956Z,89.85
2023-03-01T19:24:38.539Z,90.41
2023-03-01T19:27:09.921Z,90.18
2023-03-01T19:29:41.300Z,90.27
2023-03-01T19:32:12.810Z,90.03
2023-03-01T19:34:44.239Z,89.99
2023-03-01T19:37:15.535Z,90.17
2023-03-01T19:39:47.981Z,90.23
2023-03-01T19:42:19.353Z,90.31
2023-03-01T19:44:50.739Z,90.08
2023-03-01T19:47:22.073Z,89.75
2023-03-01T19:49:53.524Z,90.32
2023-03-01T19:52:24.991Z,90.14
2023-03-01T19:55:08.599Z,90.16
2023-03-01T19:57:41.034Z,90.18
2023-03-01T20:00:12.689Z,90.22
2023-03-01T20:02:44.077Z,90.45
2023-03-01T20:05:15.675Z,90.67
2023-03-01T20:07:46.972Z,90.74
2023-03-01T20:10:18.353Z,90.54
2023-03-01T20:12:49.672Z,90.31
2023-03-01T20:15:21.199Z,90.27
2023-03-01T20:17:52.548Z,90.77
2023-03-01T20:20:23.999Z,90.49
2023-03-01T20:22:55.309Z,90.23
2023-03-01T20:25:26.661Z,90.23
2023-03-01T20:27:57.988Z,90.00
2023-03-01T20:30:29.341Z,90.62
2023-03-01T20:33:00.673Z,90.37
2023-03-01T20:35:35.713Z,90.25
2023-03-01T20:38:07.413Z,90.67
2023-03-01T20:40:38.801Z,90.47
2023-03-01T20:43:10.090Z,90.59
2023-03-01T20:45:41.945Z,90.74
2023-03-01T20:48:13.970Z,90.67
2023-03-01T20:50:45.258Z,90.78
2023-03-01T20:53:16.851Z,90.80
2023-03-01T20:55:48.244Z,91.28
2023-03-01T20:58:19.605Z,90.92
2023-03-01T21:00:52.263Z,90.40
2023-03-01T21:03:23.628Z,90.48
2023-03-01T21:06:00.303Z,90.35
2023-03-01T21:08:32.848Z,90.61
2023-03-01T21:11:06.348Z,90.79
2023-03-01T21:13:38.675Z,91.06
2023-03-01T21:16:13.680Z,91.15
2023-03-01T21:18:45.365Z,91.29
2023-03-01T21:21:19.416Z,91.05
2023-03-01T21:23:50.878Z,90.56
2023-03-01T21:26:24.917Z,91.28
2023-03-01T21:29:01.488Z,90.60
2023-03-01T21:31:35.059Z,91.70
2023-03-01T21:34:06.703Z,90.80
2023-03-01T21:36:38.016Z,91.73
2023-03-01T21:39:09.312Z,91.52
2023-03-01T21:41:40.586Z,91.82
2023-03-01T21:44:11.876Z,92.30
2023-03-01T21:46:43.150Z,91.89
2023-03-01T21:49:14.502Z,91.37
2023-03-01T21:51:45.869Z,91.05
2023-03-01T21:54:19.483Z,91.25
2023-03-01T21:56:51.030Z,91.08
2023-03-01T21:59:23.810Z,91.46
2023-03-01T22:01:55.176Z,91.46
2023-03-01T22:04:26.620Z,90.99
2023-03-01T22:06:58.097Z,91.31
2023-03-01T22:09:29.998Z,91.34
2023-03-01T22:12:04.819Z,91.87
2023-03-01T22:14:36.136Z,91.51
2023-03-01T22:17:07.540Z,91.27
2023-03-01T22:19:38.905Z,91.96
2023-03-01T22:22:10.195Z,91.75
2023-03-01T22:24:41.566Z,91.71
2023-03-01T22:27:12.826Z,91.50
2023-03-01T22:29:44.104Z,91.92
2023-03-01T22:32:15.581Z,92.02
2023-03-01T22:34:46.925Z,91.83
2023-03-01T22:37:18.237Z,91.87
2023-03-01T22:39:49.592Z,92.13
2023-03-01T22:42:20.890Z,92.17
2023-03-01T22:44:52.220Z,92.12
2023-03-01T22:47:24.508Z,92.10
2023-03-01T22:49:56.655Z,92.18
2023-03-01T22:52:27.925Z,92.33
2023-03-01T22:54:59.408Z,92.53
2023-03-01T22:57:30.678Z,92.27
2023-03-01T23:00:04.077Z,92.18
2023-03-01T23:02:36.350Z,92.34
2023-03-01T23:05:09.243Z,92.63
2023-03-01T23:07:40.764Z,92.06
2023-03-01T23:10:13.126Z,92.35
2023-03-01T23:12:44.531Z,92.60
2023-03-01T23:15:15.864Z,92.83
2023-03-01T23:17:47.167Z,92.74
2023-03-01T23:20:18.567Z,93.12
2023-03-01T23:22:49.839Z,92.82
2023-03-01T23:25:21.393Z,92.88
2023-03-01T23:27:53.688Z,92.56
2023-03-01T23:30:24.962Z,92.82
2023-03-01T23:32:56.803Z,92.87
2023-03-01T23:35:28.162Z,92.54
2023-03-01T23:37:59.582Z,92.75
2023-03-01T23:40:30.857Z,92.82
2023-03-01T23:43:02.177Z,93.12
2023-03-01T23:45:37.566Z,92.66
2023-03-01T23:48:13.203Z,93.01
2023-03-01T23:50:44.487Z,93.22
2023-03-01T23:53:18.615Z,93.01
2023-03-01T23:55:52.762Z,93.00
2023-03-01T23:58:28.300Z,92.85
